Time;durP1;ratioP1;P1;durP2;ratioP2;P2;SDS_P1;SDS_P2;PMS_P1;PMS_P2;Temp;Humidity;BMP_temperature;BMP_pressure;BME280_temperature;BME280_humidity;BME280_pressure;Samples;Min_cycle;Max_cycle;Signal;HPM_P1;HPM_P2
2022/04/26 03:36:08;;;;;;;;;10.00;9.67;;;;;21.42;45.51;100678.31;109855;1267;20356;-52
2022/04/26 03:38:35;;;;;;;;;9.00;8.00;;;;;21.42;45.29;100680.50;110034;1266;19296;-52
2022/04/26 03:41:02;;;;;;;;;9.00;8.33;;;;;21.42;45.31;100679.52;109742;1268;21980;-58
2022/04/26 03:43:30;;;;;;;;;9.00;9.00;;;;;21.43;45.26;100686.25;109990;1267;20364;-54
2022/04/26 03:45:57;;;;;;;;;9.00;9.00;;;;;21.42;45.35;100684.30;110079;1267;20159;-53
2022/04/26 03:48:25;;;;;;;;;9.00;9.00;;;;;21.42;45.37;100688.00;110059;1266;23691;-52
2022/04/26 03:50:52;;;;;;;;;9.33;9.33;;;;;21.42;45.41;100688.72;110084;1266;20356;-53
2022/04/26 03:53:19;;;;;;;;;10.00;9.00;;;;;21.43;45.25;100689.02;109849;1268;19315;-53
2022/04/26 03:55:47;;;;;;;;;8.00;8.00;;;;;21.41;45.26;100692.98;110095;1266;19744;-53
2022/04/26 03:58:14;;;;;;;;;8.67;7.33;;;;;21.42;45.36;100696.73;110368;1261;20249;-51
2022/04/26 04:00:41;;;;;;;;;8.33;8.33;;;;;21.42;45.15;100692.70;110431;1261;19186;-56
2022/04/26 04:03:08;;;;;;;;;9.00;9.00;;;;;21.41;45.28;100699.70;110393;1261;19507;-51
2022/04/26 04:05:35;;;;;;;;;10.00;10.00;;;;;21.42;45.12;100702.55;110342;1261;20633;-51
2022/04/26 04:08:03;;;;;;;;;8.33;8.33;;;;;21.42;45.14;100703.77;110434;1261;19162;-53
2022/04/26 04:10:30;;;;;;;;;10.00;9.33;;;;;21.42;45.17;100706.70;110399;1261;19558;-53
2022/04/26 04:12:57;;;;;;;;;8.00;8.00;;;;;21.42;45.08;100705.66;110454;1260;20160;-55
2022/04/26 04:15:24;;;;;;;;;9.00;8.67;;;;;21.41;45.18;100706.11;110425;1262;23227;-53
2022/04/26 04:17:52;;;;;;;;;9.67;8.33;;;;;21.40;45.09;100708.73;110415;1261;19743;-52
2022/04/26 04:20:19;;;;;;;;;8.00;8.00;;;;;21.40;45.29;100713.28;110412;1261;20546;-53
2022/04/26 04:22:48;;;;;;;;;9.00;8.67;;;;;21.40;45.28;100715.98;110427;1261;19264;-53
2022/04/26 04:25:15;;;;;;;;;8.00;8.00;;;;;21.41;45.14;100721.79;110404;1261;19583;-54
2022/04/26 04:27:42;;;;;;;;;8.00;8.00;;;;;21.41;45.09;100723.75;110331;1262;20351;-52
2022/04/26 04:30:10;;;;;;;;;11.33;9.67;;;;;21.40;45.18;100727.80;110445;1261;19536;-54
2022/04/26 04:32:37;;;;;;;;;9.00;9.00;;;;;21.41;45.12;100725.97;110422;1261;19515;-52
2022/04/26 04:35:04;;;;;;;;;9.33;9.33;;;;;21.40;45.22;100726.54;110452;1261;20390;-53
2022/04/26 04:37:31;;;;;;;;;8.00;8.00;;;;;21.41;45.16;100733.06;110441;1261;19110;-52
2022/04/26 04:39:59;;;;;;;;;8.00;6.00;;;;;21.41;45.05;100733.20;110398;1261;20774;-54
2022/04/26 04:42:27;;;;;;;;;9.00;9.00;;;;;21.40;45.17;100732.20;110418;1261;23054;-49
2022/04/26 04:44:54;;;;;;;;;8.67;8.00;;;;;21.41;45.02;100734.67;110446;1261;19385;-51
2022/04/26 04:47:21;;;;;;;;;8.00;8.00;;;;;21.40;44.98;100732.38;110477;1261;19794;-53
2022/04/26 04:49:49;;;;;;;;;9.00;8.00;;;;;21.41;45.02;100736.67;110437;1261;20390;-52
2022/04/26 04:52:17;;;;;;;;;9.00;9.00;;;;;21.41;44.99;100739.23;110453;1261;19218;-53
2022/04/26 04:54:44;;;;;;;;;9.00;8.50;;;;;21.41;44.96;100737.94;110413;1261;19697;-54
2022/04/26 04:57:11;;;;;;;;;12.67;10.00;;;;;21.42;44.94;100743.08;110419;1261;20389;-54
2022/04/26 04:59:39;;;;;;;;;12.00;10.00;;;;;21.43;45.10;100742.21;110403;1261;19709;-53
2022/04/26 05:02:06;;;;;;;;;9.00;8.33;;;;;21.46;45.04;100739.84;110444;1261;19704;-54
2022/04/26 05:04:34;;;;;;;;;10.00;9.33;;;;;21.51;45.28;100739.04;110392;1261;23036;-53
2022/04/26 05:07:01;;;;;;;;;9.67;8.33;;;;;21.56;45.69;100737.38;110428;1261;23318;-56
2022/04/26 05:09:28;;;;;;;;;11.00;9.67;;;;;21.63;46.80;100740.64;110407;1261;23145;-55
2022/04/26 05:11:55;;;;;;;;;15.33;11.33;;;;;21.67;47.07;100742.10;110392;1261;20409;-54
2022/04/26 05:14:23;;;;;;;;;10.67;9.00;;;;;21.70;47.19;100744.08;110448;1262;22957;-53
2022/04/26 05:16:50;;;;;;;;;9.67;9.67;;;;;21.74;47.40;100749.39;110366;1262;19597;-53
2022/04/26 05:19:17;;;;;;;;;10.00;9.00;;;;;21.73;47.10;100747.98;110391;1260;20348;-53
2022/04/26 05:21:45;;;;;;;;;8.67;6.67;;;;;21.70;47.15;100746.51;110402;1261;19142;-55
2022/04/26 05:26:57;;;;;;;;;8.00;8.00;;;;;21.66;47.33;100750.47;110348;1261;20318;-55
2022/04/26 05:29:24;;;;;;;;;8.67;8.00;;;;;21.65;47.29;100757.43;110407;1261;19256;-53
2022/04/26 05:31:51;;;;;;;;;10.00;9.00;;;;;21.68;47.34;100762.89;110429;1259;19479;-53
2022/04/26 05:34:19;;;;;;;;;8.67;8.00;;;;;21.76;47.90;100754.77;110420;1261;20537;-54
2022/04/26 05:36:46;;;;;;;;;10.00;9.50;;;;;21.81;48.25;100761.52;110407;1261;19398;-56
2022/04/26 05:39:13;;;;;;;;;10.00;9.50;;;;;21.85;48.43;100766.48;110361;1261;21063;-53
2022/04/26 05:41:40;;;;;;;;;8.33;8.33;;;;;21.87;48.42;100764.59;110338;1262;23336;-54
2022/04/26 05:44:07;;;;;;;;;12.00;10.00;;;;;21.86;48.18;100771.45;110283;1262;19243;-54
2022/04/26 05:46:35;;;;;;;;;12.00;11.33;;;;;21.83;48.27;100770.00;110394;1261;22992;-56
2022/04/26 05:49:02;;;;;;;;;8.33;7.33;;;;;21.86;48.38;100769.05;110258;1261;21216;-51
2022/04/26 05:51:29;;;;;;;;;9.00;9.00;;;;;21.87;48.06;100769.67;110338;1261;19242;-52
2022/04/26 05:53:56;;;;;;;;;12.33;10.00;;;;;21.87;47.96;100771.66;110426;1260;20066;-54
2022/04/26 05:56:23;;;;;;;;;11.00;10.00;;;;;21.89;47.73;100777.53;110392;1262;20289;-55
2022/04/26 05:58:51;;;;;;;;;9.00;9.00;;;;;21.87;47.56;100777.70;110446;1261;19314;-53
2022/04/26 06:01:18;;;;;;;;;11.00;11.00;;;;;21.87;47.48;100786.02;110319;1262;23576;-53
2022/04/26 06:03:46;;;;;;;;;6.67;6.00;;;;;21.85;47.45;100788.34;110315;1261;20530;-54
2022/04/26 06:06:13;;;;;;;;;11.33;10.00;;;;;21.82;47.20;100792.34;110179;1261;21583;-53
2022/04/26 06:08:40;;;;;;;;;9.00;8.67;;;;;21.79;46.60;100797.71;110314;1260;19773;-54
2022/04/26 06:11:08;;;;;;;;;12.67;12.00;;;;;21.76;45.84;100795.39;110217;1261;20618;-56
2022/04/26 06:13:35;;;;;;;;;12.33;10.67;;;;;21.74;45.20;100794.90;110390;1261;23030;-54
2022/04/26 06:16:02;;;;;;;;;12.00;12.00;;;;;21.72;44.30;100798.98;110279;1262;19678;-57
2022/04/26 06:18:30;;;;;;;;;14.50;11.00;;;;;21.72;43.83;100795.84;109979;1261;360828;-56
2022/04/26 06:20:57;;;;;;;;;10.67;10.00;;;;;21.70;43.46;100797.90;110420;1262;23405;-55
2022/04/26 06:23:24;;;;;;;;;13.00;10.00;;;;;21.71;43.34;100798.71;110355;1261;19572;-54
2022/04/26 06:25:51;;;;;;;;;11.33;11.33;;;;;21.70;42.88;100801.08;110418;1261;20428;-55
2022/04/26 06:28:19;;;;;;;;;13.00;12.00;;;;;21.67;42.86;100798.66;110358;1260;23574;-55
2022/04/26 06:30:46;;;;;;;;;11.00;10.50;;;;;21.68;42.86;100800.33;110384;1261;23582;-59
2022/04/26 06:33:13;;;;;;;;;11.00;10.67;;;;;21.71;43.21;100800.52;110355;1261;20314;-59
2022/04/26 06:35:41;;;;;;;;;9.33;9.33;;;;;21.75;43.68;100802.56;110288;1262;19287;-57
2022/04/26 06:38:08;;;;;;;;;13.67;13.67;;;;;21.75;43.62;100801.84;110404;1261;19612;-57
2022/04/26 06:40:35;;;;;;;;;12.00;12.00;;;;;21.74;42.71;100808.54;110383;1261;20310;-53
2022/04/26 06:43:02;;;;;;;;;10.00;9.00;;;;;21.76;42.42;100802.86;110368;1261;19332;-52
2022/04/26 06:45:29;;;;;;;;;9.67;9.67;;;;;21.76;42.11;100806.16;110290;1261;23938;-54
2022/04/26 06:47:57;;;;;;;;;10.00;9.00;;;;;21.76;42.46;100806.67;110437;1261;20554;-54
2022/04/26 06:50:24;;;;;;;;;11.67;10.33;;;;;21.76;42.32;100811.59;110385;1262;23179;-57
2022/04/26 06:52:51;;;;;;;;;12.50;10.00;;;;;21.77;41.75;100817.86;110406;1262;19821;-54
2022/04/26 06:55:18;;;;;;;;;10.00;10.00;;;;;21.76;41.49;100813.58;110269;1262;20311;-54
2022/04/26 06:57:46;;;;;;;;;12.00;10.00;;;;;21.75;41.21;100816.73;110321;1262;19328;-51
2022/04/26 07:00:13;;;;;;;;;12.00;10.00;;;;;21.73;40.50;100814.14;110371;1262;19527;-52
2022/04/26 07:02:41;;;;;;;;;9.00;9.00;;;;;21.70;39.71;100819.44;110314;1261;23553;-55
2022/04/26 07:05:08;;;;;;;;;9.67;9.33;;;;;21.64;38.67;100817.37;110239;1261;19079;-51
2022/04/26 07:07:35;;;;;;;;;12.00;10.00;;;;;21.58;37.39;100818.54;110179;1261;22454;-53
2022/04/26 07:10:03;;;;;;;;;9.00;9.00;;;;;21.59;37.33;100821.95;110282;1262;22692;-53
2022/04/26 07:12:30;;;;;;;;;13.00;10.00;;;;;21.56;36.76;100819.88;110386;1261;19569;-56
2022/04/26 07:14:57;;;;;;;;;9.00;9.00;;;;;21.54;36.36;100821.29;110327;1261;19910;-52
2022/04/26 07:17:25;;;;;;;;;12.33;12.00;;;;;21.51;36.07;100823.58;110358;1262;20300;-52
2022/04/26 07:19:52;;;;;;;;;12.00;10.00;;;;;21.54;37.02;100824.73;110290;1261;23196;-55
2022/04/26 07:22:19;;;;;;;;;11.33;10.00;;;;;21.55;36.41;100823.37;110353;1261;19688;-54
2022/04/26 07:24:47;;;;;;;;;8.33;8.00;;;;;21.50;35.59;100820.47;110371;1261;20316;-53
2022/04/26 07:27:16;;;;;;;;;10.00;10.00;;;;;21.37;34.64;100823.44;110427;1261;19294;-55
2022/04/26 07:29:44;;;;;;;;;9.00;8.50;;;;;21.20;34.63;100832.48;110378;1260;22969;-53
2022/04/26 07:32:11;;;;;;;;;10.00;10.00;;;;;21.14;34.77;100831.05;110395;1261;22700;-53
2022/04/26 07:34:39;;;;;;;;;8.00;8.00;;;;;21.19;34.76;100829.32;110391;1261;23289;-54
2022/04/26 07:37:07;;;;;;;;;10.00;10.00;;;;;21.23;34.17;100830.56;110351;1261;19844;-50
2022/04/26 07:39:34;;;;;;;;;10.00;9.33;;;;;21.14;34.09;100830.85;110254;1262;20345;-50
2022/04/26 07:42:02;;;;;;;;;12.33;11.33;;;;;21.03;33.89;100831.00;110366;1261;19243;-50
2022/04/26 07:44:29;;;;;;;;;10.00;10.00;;;;;20.88;33.99;100835.14;110419;1261;19638;-51
2022/04/26 07:46:56;;;;;;;;;16.00;14.00;;;;;20.96;34.34;100839.84;110450;1261;20262;-53
2022/04/26 07:49:24;;;;;;;;;12.67;12.67;;;;;21.00;33.38;100837.73;110309;1261;19214;-52
2022/04/26 07:51:52;;;;;;;;;10.00;9.00;;;;;20.98;32.63;100836.53;110312;1261;19837;-51
2022/04/26 07:54:19;;;;;;;;;12.00;10.00;;;;;20.88;32.30;100833.44;110243;1261;22199;-51
2022/04/26 07:56:46;;;;;;;;;11.33;9.00;;;;;20.85;31.90;100837.63;110384;1261;22068;-51
2022/04/26 07:59:14;;;;;;;;;10.00;10.00;;;;;20.81;32.14;100836.81;110314;1261;19514;-51
2022/04/26 08:01:41;;;;;;;;;9.00;8.33;;;;;20.80;32.02;100834.95;110312;1262;23847;-52
2022/04/26 08:04:08;;;;;;;;;10.67;9.33;;;;;20.86;32.08;100838.45;110252;1262;19375;-51
2022/04/26 08:06:36;;;;;;;;;8.67;8.00;;;;;20.94;32.12;100839.13;110385;1261;19550;-51
2022/04/26 08:09:03;;;;;;;;;6.67;6.00;;;;;21.01;32.04;100836.86;110392;1261;20397;-55
2022/04/26 08:11:30;;;;;;;;;8.00;8.00;;;;;21.05;31.76;100841.61;110428;1262;24297;-55
2022/04/26 08:13:58;;;;;;;;;8.00;6.00;;;;;21.00;31.52;100838.84;110350;1262;19992;-50
2022/04/26 08:16:25;;;;;;;;;8.00;6.00;;;;;21.05;31.72;100841.61;110403;1261;20505;-48
2022/04/26 08:18:52;;;;;;;;;9.00;8.00;;;;;21.08;31.88;100847.12;110272;1260;19147;-51
2022/04/26 08:21:20;;;;;;;;;6.00;6.00;;;;;21.09;31.73;100848.52;110320;1261;19412;-51
2022/04/26 08:29:18;;;;;;;;;5.33;5.33;;;;;21.16;31.58;100854.91;110395;1261;19620;-54
2022/04/26 08:31:45;;;;;;;;;8.00;6.00;;;;;21.14;31.39;100856.16;110200;1261;21661;-51
2022/04/26 08:34:12;;;;;;;;;6.00;5.33;;;;;21.11;31.53;100851.56;110382;1261;19195;-50
2022/04/26 08:36:39;;;;;;;;;6.00;6.00;;;;;21.06;30.92;100856.29;110272;1261;19725;-52
2022/04/26 08:39:07;;;;;;;;;4.33;4.33;;;;;20.93;30.73;100856.67;110391;1261;20312;-52
2022/04/26 08:41:34;;;;;;;;;6.67;6.00;;;;;20.98;31.21;100857.41;110375;1261;21003;-49
2022/04/26 08:44:02;;;;;;;;;7.00;6.00;;;;;21.11;31.21;100859.89;110290;1261;19522;-54
2022/04/26 08:51:55;;;;;;;;;6.67;6.00;;;;;20.93;30.02;100857.91;110300;1261;19692;-56
2022/04/26 08:54:22;;;;;;;;;6.00;6.00;;;;;20.97;29.94;100859.28;110400;1261;20317;-47
2022/04/26 08:56:50;;;;;;;;;6.00;6.00;;;;;21.01;30.00;100857.20;110352;1261;21118;-50
2022/04/26 08:59:17;;;;;;;;;5.67;5.33;;;;;21.04;29.83;100862.60;110432;1261;23016;-51
2022/04/26 09:01:44;;;;;;;;;5.00;5.00;;;;;21.09;29.90;100858.83;110420;1262;20302;-52
2022/04/26 09:04:11;;;;;;;;;6.00;6.00;;;;;21.12;30.14;100863.79;110344;1262;19533;-51
2022/04/26 09:06:40;;;;;;;;;8.00;5.67;;;;;21.15;30.20;100863.82;110436;1261;19434;-51
2022/04/26 09:09:07;;;;;;;;;8.00;6.00;;;;;21.18;30.16;100865.79;110277;1262;20181;-50
2022/04/26 09:11:35;;;;;;;;;5.00;5.00;;;;;21.14;29.87;100864.64;110332;1261;19238;-52
2022/04/26 09:14:02;;;;;;;;;5.33;5.33;;;;;21.18;30.37;100865.27;110423;1261;19654;-52
2022/04/26 09:16:29;;;;;;;;;8.00;6.00;;;;;21.25;30.47;100864.29;110395;1261;20420;-52
2022/04/26 09:18:57;;;;;;;;;5.00;5.00;;;;;21.23;30.06;100866.52;110364;1262;19210;-51
2022/04/26 09:21:26;;;;;;;;;6.00;6.00;;;;;21.27;30.23;100872.70;110282;1261;20793;-50
2022/04/26 09:23:54;;;;;;;;;6.00;6.00;;;;;21.28;30.27;100870.59;110419;1261;20400;-52
2022/04/26 09:26:21;;;;;;;;;6.00;5.67;;;;;21.27;30.49;100871.77;110418;1262;19057;-52
2022/04/26 09:28:48;;;;;;;;;9.00;6.00;;;;;21.29;30.35;100871.45;110385;1261;19490;-52
2022/04/26 09:31:15;;;;;;;;;5.33;5.00;;;;;21.30;30.52;100871.45;110418;1261;20323;-49
2022/04/26 09:33:47;;;;;;;;;5.50;5.50;;;;;21.34;30.57;100875.21;110386;1261;19161;-52
2022/04/26 09:36:14;;;;;;;;;6.00;6.00;;;;;21.38;30.45;100874.00;110416;1261;20038;-51
2022/04/26 09:38:41;;;;;;;;;6.33;5.00;;;;;21.35;30.06;100872.19;110393;1262;20267;-55
2022/04/26 09:41:09;;;;;;;;;7.67;6.00;;;;;21.28;30.06;100873.70;110397;1261;19438;-51
2022/04/26 09:43:36;;;;;;;;;5.00;5.00;;;;;21.30;29.98;100870.60;110303;1261;19759;-51
2022/04/26 09:46:04;;;;;;;;;5.00;5.00;;;;;21.26;29.99;100872.12;110294;1261;20931;-51
2022/04/26 09:48:32;;;;;;;;;4.67;4.67;;;;;21.21;29.91;100875.63;110385;1261;23109;-50
2022/04/26 09:50:59;;;;;;;;;6.00;6.00;;;;;21.24;29.76;100874.59;110394;1261;23141;-50
2022/04/26 09:53:26;;;;;;;;;5.67;5.67;;;;;21.19;29.77;100871.13;110458;1261;23674;-51
2022/04/26 09:55:54;;;;;;;;;8.00;8.00;;;;;21.12;29.91;100872.52;110388;1262;23024;-52
2022/04/26 09:58:21;;;;;;;;;8.00;7.33;;;;;21.06;29.98;100874.59;110394;1261;19444;-51
2022/04/26 10:00:49;;;;;;;;;6.00;6.00;;;;;21.06;29.95;100878.23;110388;1261;20318;-51
2022/04/26 10:03:16;;;;;;;;;5.33;5.33;;;;;21.04;29.59;100876.65;110356;1261;23052;-52
2022/04/26 10:05:45;;;;;;;;;6.00;6.00;;;;;20.99;29.55;100881.41;110379;1260;24212;-52
2022/04/26 10:08:12;;;;;;;;;8.00;6.00;;;;;20.95;29.48;100878.09;110367;1261;20252;-51
2022/04/26 10:10:41;;;;;;;;;9.00;6.00;;;;;20.91;29.60;100879.19;110389;1261;23860;-51
2022/04/26 10:15:53;;;;;;;;;7.33;6.67;;;;;20.90;29.86;100881.38;110398;1261;20331;-51
2022/04/26 10:18:20;;;;;;;;;7.33;6.00;;;;;20.94;29.74;100880.65;110362;1261;19321;-56
2022/04/26 10:20:47;;;;;;;;;9.00;8.33;;;;;20.98;29.85;100879.72;110365;1261;19508;-56
2022/04/26 10:23:15;;;;;;;;;8.33;5.33;;;;;20.98;29.88;100883.30;110449;1261;23451;-48
2022/04/26 10:25:42;;;;;;;;;8.00;8.00;;;;;20.97;29.68;100879.79;110355;1261;19283;-51
2022/04/26 10:28:10;;;;;;;;;10.00;8.33;;;;;20.99;30.02;100881.01;110383;1262;19501;-50
2022/04/26 10:30:38;;;;;;;;;8.00;8.00;;;;;20.96;29.75;100881.43;110381;1261;20445;-50
2022/04/26 10:33:06;;;;;;;;;8.00;8.00;;;;;20.83;30.01;100883.13;110372;1261;24790;-50
2022/04/26 10:35:33;;;;;;;;;9.00;8.67;;;;;20.81;29.78;100881.42;110357;1262;19610;-53
2022/04/26 10:38:00;;;;;;;;;10.00;9.67;;;;;20.85;29.70;100884.98;110407;1261;20403;-51
2022/04/26 10:40:28;;;;;;;;;8.33;8.00;;;;;20.88;29.59;100883.05;110403;1261;19068;-52
2022/04/26 10:42:55;;;;;;;;;9.00;9.00;;;;;20.87;29.90;100881.01;110398;1261;19441;-52
2022/04/26 10:45:22;;;;;;;;;8.00;8.00;;;;;20.88;30.11;100880.50;110350;1262;20326;-50
2022/04/26 10:47:49;;;;;;;;;7.33;7.33;;;;;20.76;30.24;100881.88;110414;1261;19135;-52
2022/04/26 10:50:16;;;;;;;;;10.33;9.00;;;;;20.72;30.15;100880.84;110420;1261;19409;-50
2022/04/26 10:52:44;;;;;;;;;9.00;8.00;;;;;20.71;29.98;100878.83;110299;1262;20616;-49
2022/04/26 10:55:12;;;;;;;;;11.00;10.33;;;;;20.46;30.33;100876.30;110408;1261;19328;-50
2022/04/26 10:57:41;;;;;;;;;8.00;6.67;;;;;20.37;30.41;100870.42;110384;1262;23145;-50
2022/04/26 11:00:09;;;;;;;;;8.33;8.33;;;;;20.51;30.60;100875.27;110287;1261;20629;-51
2022/04/26 11:02:36;;;;;;;;;9.00;8.50;;;;;20.61;30.60;100879.94;110414;1261;19260;-50
2022/04/26 11:05:04;;;;;;;;;6.00;6.00;;;;;20.59;30.80;100879.47;110442;1261;19640;-50
2022/04/26 11:07:31;;;;;;;;;10.00;9.00;;;;;20.63;30.72;100880.61;110390;1261;20274;-52
2022/04/26 11:09:59;;;;;;;;;9.00;8.33;;;;;20.66;31.09;100882.62;110315;1262;19099;-51
2022/04/26 11:12:27;;;;;;;;;7.33;5.67;;;;;20.68;30.94;100879.45;110357;1261;19513;-56
2022/04/26 11:14:54;;;;;;;;;9.00;9.00;;;;;20.68;31.02;100876.02;110373;1261;20426;-47
2022/04/26 11:17:22;;;;;;;;;9.67;8.00;;;;;20.70;30.46;100877.13;110435;1261;19149;-50
2022/04/26 11:19:49;;;;;;;;;12.00;12.00;;;;;20.70;30.69;100877.84;110369;1261;20021;-49
2022/04/26 11:22:17;;;;;;;;;11.33;11.33;;;;;20.75;30.75;100879.05;110424;1261;21682;-51
2022/04/26 11:30:15;;;;;;;;;9.00;9.00;;;;;20.81;30.06;100885.65;110403;1261;20317;-50
2022/04/26 11:32:44;;;;;;;;;12.00;12.00;;;;;20.77;30.27;100883.18;110424;1261;19324;-51
2022/04/26 11:35:11;;;;;;;;;9.67;9.67;;;;;20.67;30.24;100882.48;110414;1262;23305;-51
2022/04/26 11:37:38;;;;;;;;;9.00;8.33;;;;;20.63;30.03;100884.05;110338;1261;20411;-48
2022/04/26 11:40:05;;;;;;;;;12.00;11.00;;;;;20.64;30.02;100883.06;110327;1261;23002;-49
2022/04/26 11:42:33;;;;;;;;;10.00;8.00;;;;;20.58;30.20;100887.52;110359;1262;19669;-52
2022/04/26 11:45:00;;;;;;;;;10.00;8.33;;;;;20.54;30.31;100887.27;110361;1261;20588;-52
2022/04/26 11:47:27;;;;;;;;;9.33;8.67;;;;;20.56;30.28;100892.55;110368;1261;19173;-49
2022/04/26 11:49:55;;;;;;;;;8.00;8.00;;;;;20.53;30.62;100896.46;110244;1261;19817;-51
2022/04/26 11:52:22;;;;;;;;;9.00;6.00;;;;;20.61;30.43;100898.21;110323;1261;24315;-54
2022/04/26 11:54:49;;;;;;;;;6.00;6.00;;;;;20.71;30.87;100891.67;110316;1261;19113;-51
2022/04/26 11:57:17;;;;;;;;;12.00;10.00;;;;;20.76;31.02;100891.08;110418;1261;19491;-50
2022/04/26 11:59:44;;;;;;;;;9.50;9.00;;;;;20.93;33.18;100895.80;110392;1261;20483;-52
2022/04/26 12:02:11;;;;;;;;;16.00;12.00;;;;;21.04;34.30;100889.85;110451;1261;20787;-51
2022/04/26 12:04:38;;;;;;;;;15.00;13.00;;;;;20.78;33.47;100886.73;110423;1261;24691;-52
2022/04/26 12:07:06;;;;;;;;;10.00;9.00;;;;;20.76;32.75;100887.47;110378;1261;23643;-52
2022/04/26 12:09:33;;;;;;;;;12.00;10.00;;;;;20.79;32.50;100882.29;110373;1261;19355;-51
2022/04/26 12:12:02;;;;;;;;;12.50;12.00;;;;;20.77;32.51;100882.33;110290;1261;20295;-55
2022/04/26 12:14:29;;;;;;;;;12.00;10.00;;;;;20.83;32.58;100879.38;110447;1261;22954;-50
2022/04/26 12:16:57;;;;;;;;;10.33;10.00;;;;;20.96;33.16;100875.61;110357;1261;19429;-50
2022/04/26 12:19:24;;;;;;;;;10.00;10.00;;;;;21.00;33.23;100875.15;110383;1261;19777;-49
2022/04/26 12:21:52;;;;;;;;;10.00;9.00;;;;;21.04;33.04;100877.14;110430;1261;20255;-52
2022/04/26 12:24:21;;;;;;;;;10.67;10.00;;;;;21.10;33.21;100877.95;110408;1261;19182;-51
2022/04/26 12:26:48;;;;;;;;;10.00;10.00;;;;;21.10;32.53;100878.04;110397;1261;19525;-49
2022/04/26 12:29:15;;;;;;;;;12.00;12.00;;;;;21.10;32.49;100874.57;110421;1261;20353;-50
2022/04/26 12:31:42;;;;;;;;;9.00;8.67;;;;;21.06;32.57;100874.00;110403;1261;19181;-50
2022/04/26 12:34:13;;;;;;;;;10.00;10.00;;;;;21.13;33.14;100865.46;110412;1261;19694;-50
2022/04/26 12:36:40;;;;;;;;;8.00;8.00;;;;;21.18;33.39;100865.81;110409;1261;21555;-51
2022/04/26 12:39:07;;;;;;;;;9.33;8.33;;;;;21.20;33.73;100861.41;110415;1261;19273;-51
2022/04/26 12:41:35;;;;;;;;;11.33;10.67;;;;;21.23;33.55;100860.15;110397;1261;24106;-50
2022/04/26 12:44:03;;;;;;;;;10.00;9.67;;;;;21.21;33.11;100858.89;110349;1261;24659;-47
2022/04/26 12:46:30;;;;;;;;;8.67;8.67;;;;;21.15;32.95;100861.09;110388;1262;19666;-52
2022/04/26 12:51:42;;;;;;;;;9.33;8.67;;;;;21.17;33.23;100853.23;110417;1261;20217;-50
2022/04/26 12:54:11;;;;;;;;;10.00;9.67;;;;;21.16;32.84;100852.80;110439;1262;19312;-49
2022/04/26 12:56:38;;;;;;;;;8.00;8.00;;;;;21.07;32.27;100854.52;110379;1261;20081;-50
2022/04/26 12:59:06;;;;;;;;;10.67;9.00;;;;;21.14;33.50;100853.52;110374;1261;22949;-51
2022/04/26 13:01:34;;;;;;;;;8.00;8.00;;;;;21.23;33.61;100851.29;110310;1262;23063;-50
2022/04/26 13:04:02;;;;;;;;;8.67;8.00;;;;;21.31;33.94;100847.73;110418;1261;21734;-51
2022/04/26 13:06:30;;;;;;;;;9.00;8.00;;;;;21.38;33.96;100844.17;110425;1261;21404;-58
2022/04/26 13:08:57;;;;;;;;;8.67;8.00;;;;;21.45;34.34;100847.96;110361;1261;23052;-56
2022/04/26 13:11:24;;;;;;;;;6.00;6.00;;;;;21.48;34.59;100843.45;110461;1261;19447;-53
2022/04/26 13:13:52;;;;;;;;;6.00;6.00;;;;;21.53;35.56;100843.19;110403;1262;20354;-56
2022/04/26 13:16:19;;;;;;;;;8.00;8.00;;;;;21.55;36.32;100839.99;110329;1261;19118;-54
2022/04/26 13:18:46;;;;;;;;;9.00;8.00;;;;;21.55;36.47;100839.83;110435;1261;19373;-52
2022/04/26 13:21:14;;;;;;;;;9.33;8.00;;;;;21.52;36.29;100838.55;110426;1261;20319;-50
2022/04/26 13:23:43;;;;;;;;;8.00;8.00;;;;;21.50;36.56;100839.41;110381;1261;19755;-51
2022/04/26 13:26:10;;;;;;;;;8.67;8.00;;;;;21.47;36.16;100836.84;110433;1261;19706;-49
2022/04/26 13:28:38;;;;;;;;;9.00;8.67;;;;;21.40;35.81;100843.45;110316;1261;20434;-49
2022/04/26 13:31:05;;;;;;;;;9.00;8.00;;;;;21.41;35.69;100841.11;110385;1261;19229;-54
2022/04/26 13:33:33;;;;;;;;;9.00;8.00;;;;;21.45;35.41;100836.89;110372;1261;19508;-51
2022/04/26 13:36:00;;;;;;;;;8.00;7.00;;;;;21.49;35.22;100841.64;110380;1261;22765;-52
2022/04/26 13:38:28;;;;;;;;;6.00;6.00;;;;;21.52;35.37;100840.09;110427;1261;23744;-51
2022/04/26 13:40:56;;;;;;;;;8.00;8.00;;;;;21.54;35.32;100840.31;110353;1261;19488;-49
2022/04/26 13:43:24;;;;;;;;;10.00;9.00;;;;;21.58;35.42;100845.91;110433;1261;20324;-51
2022/04/26 13:45:51;;;;;;;;;9.00;9.00;;;;;21.57;35.64;100842.91;110397;1261;23907;-50
2022/04/26 13:48:18;;;;;;;;;6.00;6.00;;;;;21.54;35.78;100841.78;110231;1261;19576;-52
2022/04/26 13:50:46;;;;;;;;;9.50;8.00;;;;;21.53;36.17;100845.95;110221;1261;23015;-51
2022/04/26 13:53:13;;;;;;;;;9.00;9.00;;;;;21.45;35.15;100850.11;110287;1261;19320;-52
2022/04/26 13:55:40;;;;;;;;;9.00;9.00;;;;;21.29;33.14;100849.13;110292;1262;20006;-52
2022/04/26 13:58:09;;;;;;;;;8.33;6.67;;;;;21.24;34.51;100845.27;110254;1261;24002;-49
2022/04/26 14:00:36;;;;;;;;;12.00;10.00;;;;;21.35;37.20;100852.62;110361;1261;19264;-54
2022/04/26 14:03:04;;;;;;;;;10.67;10.67;;;;;21.44;38.03;100854.83;110351;1261;19683;-53
2022/04/26 14:05:31;;;;;;;;;10.00;9.67;;;;;21.49;38.83;100849.44;110314;1261;20525;-49
2022/04/26 14:07:58;;;;;;;;;12.00;12.00;;;;;21.50;39.05;100850.29;110389;1261;20034;-49
2022/04/26 14:10:25;;;;;;;;;12.67;11.33;;;;;21.42;37.60;100847.81;110367;1262;19661;-51
2022/04/26 14:12:53;;;;;;;;;14.00;13.00;;;;;21.38;38.00;100850.75;110356;1262;20416;-51
2022/04/26 14:23:35;;;;;;;;;12.67;10.00;;;;;21.48;37.31;100857.42;110426;1261;23574;-51
2022/04/26 14:26:03;;;;;;;;;8.50;8.00;;;;;21.44;36.88;100855.23;110321;1261;23213;-52
2022/04/26 14:28:31;;;;;;;;;8.00;8.00;;;;;21.45;36.39;100850.86;110399;1261;23331;-50
2022/04/26 14:30:58;;;;;;;;;9.00;9.00;;;;;21.46;35.93;100858.73;110383;1261;19132;-51
2022/04/26 14:33:25;;;;;;;;;9.67;9.00;;;;;21.48;35.30;100851.80;110396;1261;19418;-51
2022/04/26 14:35:53;;;;;;;;;8.33;8.00;;;;;21.50;35.11;100849.40;110323;1261;20562;-52
2022/04/26 14:38:20;;;;;;;;;9.33;8.00;;;;;21.58;34.97;100847.00;110450;1261;23186;-50
2022/04/26 14:40:48;;;;;;;;;9.00;9.00;;;;;21.64;35.03;100845.80;110383;1260;19782;-49
2022/04/26 14:43:15;;;;;;;;;9.00;9.00;;;;;21.59;34.57;100851.55;110291;1262;23196;-55
2022/04/26 14:45:46;;;;;;;;;9.00;8.50;;;;;21.48;34.12;100853.44;110394;1261;23107;-51
2022/04/26 14:48:14;;;;;;;;;8.33;8.00;;;;;21.44;34.29;100856.84;110405;1262;19575;-51
2022/04/26 14:50:42;;;;;;;;;9.33;8.67;;;;;21.48;34.40;100857.80;110313;1261;23039;-52
2022/04/26 14:53:09;;;;;;;;;9.00;8.33;;;;;21.53;34.21;100849.56;110298;1261;19663;-53
2022/04/26 14:55:36;;;;;;;;;13.00;10.00;;;;;21.56;34.54;100853.94;110335;1261;19842;-51
2022/04/26 14:58:03;;;;;;;;;7.33;6.00;;;;;21.58;34.52;100852.57;110372;1261;24482;-51
2022/04/26 15:00:31;;;;;;;;;6.67;6.67;;;;;21.59;34.70;100853.77;110334;1261;19209;-52
2022/04/26 15:02:58;;;;;;;;;7.33;7.33;;;;;21.61;34.30;100855.92;110194;1261;23740;-51
2022/04/26 15:05:27;;;;;;;;;8.33;8.00;;;;;21.63;34.26;100857.64;110150;1261;20483;-50
2022/04/26 15:10:39;;;;;;;;;8.00;6.67;;;;;21.67;34.86;100852.27;110326;1261;19662;-53
2022/04/26 15:18:37;;;;;;;;;7.33;7.33;;;;;21.74;36.57;100855.63;110261;1261;20884;-52
2022/04/26 15:21:06;;;;;;;;;8.00;8.00;;;;;21.75;36.66;100860.77;110346;1261;20281;-52
2022/04/26 15:23:35;;;;;;;;;6.00;6.00;;;;;21.78;36.57;100857.55;110313;1262;23866;-52
2022/04/26 15:26:03;;;;;;;;;9.00;8.00;;;;;21.81;36.61;100859.77;110327;1261;23148;-49
2022/04/26 15:28:31;;;;;;;;;5.50;5.50;;;;;21.85;36.70;100862.21;110339;1261;20471;-53